Time;durP1;ratioP1;P1;durP2;ratioP2;P2;SDS_P1;SDS_P2;PMS_P1;PMS_P2;Temp;Humidity;BMP_temperature;BMP_pressure;BME280_temperature;BME280_humidity;BME280_pressure;Samples;Min_cycle;Max_cycle;Signal;HPM_P1;HPM_P2
2023/08/24 00:02:07;;;;;;;;;;;24.60;62.00;;;;;;8501764;27;20322;-52
2023/08/24 00:06:07;;;;;;;;;;;24.70;62.00;;;;;;8500329;27;19912;-50
2023/08/24 00:10:08;;;;;;;;;;;24.70;62.10;;;;;;8501560;27;20096;-52
2023/08/24 00:14:09;;;;;;;;;;;24.70;62.00;;;;;;8500299;27;19999;-52
2023/08/24 00:18:09;;;;;;;;;;;24.60;62.70;;;;;;8501151;27;20053;-53
2023/08/24 00:22:10;;;;;;;;;;;24.70;62.00;;;;;;8500401;27;20366;-50
2023/08/24 00:26:10;;;;;;;;;;;24.70;61.90;;;;;;8500740;27;19918;-52
2023/08/24 00:30:11;;;;;;;;;;;24.70;61.90;;;;;;8500796;27;19969;-51
2023/08/24 00:34:12;;;;;;;;;;;24.70;61.90;;;;;;8500304;27;19908;-51
2023/08/24 00:38:12;;;;;;;;;;;24.60;62.00;;;;;;8501279;27;19919;-51
2023/08/24 00:42:15;;;;;;;;;;;24.60;62.00;;;;;;8499188;27;19960;-52
2023/08/24 00:46:16;;;;;;;;;;;24.60;62.00;;;;;;8500796;27;19950;-51
2023/08/24 00:50:17;;;;;;;;;;;24.60;62.10;;;;;;8499363;27;19916;-52
2023/08/24 00:54:18;;;;;;;;;;;24.60;62.00;;;;;;8500552;27;19959;-51
2023/08/24 00:58:19;;;;;;;;;;;24.60;62.10;;;;;;8499298;27;19912;-52
2023/08/24 01:02:20;;;;;;;;;;;24.60;62.10;;;;;;8500424;27;19922;-52
2023/08/24 01:06:20;;;;;;;;;;;24.60;62.10;;;;;;8499662;27;19908;-52
2023/08/24 01:10:21;;;;;;;;;;;24.60;62.10;;;;;;8499036;27;19912;-51
2023/08/24 01:14:41;;;;;;;;;;;24.60;62.10;;;;;;8499532;27;19923;-52
2023/08/24 01:18:42;;;;;;;;;;;24.60;62.10;;;;;;8497848;27;20276;-52
2023/08/24 01:22:57;;;;;;;;;;;24.60;62.20;;;;;;8480919;27;20452;-52
2023/08/24 01:26:59;;;;;;;;;;;24.60;62.10;;;;;;8498862;27;19907;-51
2023/08/24 01:31:00;;;;;;;;;;;24.60;62.10;;;;;;8498373;27;19925;-52
2023/08/24 01:35:02;;;;;;;;;;;24.60;62.10;;;;;;8498440;27;19920;-52
2023/08/24 01:39:10;;;;;;;;;;;24.60;62.10;;;;;;8497492;27;20452;-52
2023/08/24 01:43:13;;;;;;;;;;;24.60;62.10;;;;;;8498282;27;19911;-52
2023/08/24 01:47:13;;;;;;;;;;;24.60;62.10;;;;;;8497254;27;19908;-54
2023/08/24 01:51:14;;;;;;;;;;;24.60;62.10;;;;;;8498199;27;20378;-50
2023/08/24 01:55:17;;;;;;;;;;;24.60;62.10;;;;;;8497782;27;19918;-51
2023/08/24 01:59:18;;;;;;;;;;;24.60;62.00;;;;;;8497921;27;20276;-50
2023/08/24 02:03:19;;;;;;;;;;;24.60;62.00;;;;;;8497416;27;19933;-50
2023/08/24 02:07:19;;;;;;;;;;;24.60;62.00;;;;;;8496258;27;19912;-54
2023/08/24 02:11:20;;;;;;;;;;;24.60;62.10;;;;;;8497338;27;19911;-52
2023/08/24 02:15:20;;;;;;;;;;;24.60;62.10;;;;;;8497384;27;19911;-52
2023/08/24 02:19:21;;;;;;;;;;;24.60;62.10;;;;;;8497592;27;20341;-51
2023/08/24 02:23:21;;;;;;;;;;;24.60;62.10;;;;;;8496001;27;19919;-52
2023/08/24 02:27:22;;;;;;;;;;;24.50;62.10;;;;;;8497544;27;19911;-52
2023/08/24 02:31:22;;;;;;;;;;;24.60;62.10;;;;;;8496137;27;19911;-52
2023/08/24 02:35:23;;;;;;;;;;;24.60;62.10;;;;;;8497033;27;19918;-53
2023/08/24 02:39:23;;;;;;;;;;;24.50;62.10;;;;;;8495598;27;20288;-52
2023/08/24 02:43:24;;;;;;;;;;;24.60;62.10;;;;;;8496708;28;19916;-53
2023/08/24 02:47:24;;;;;;;;;;;24.60;62.10;;;;;;8495120;28;19918;-52
2023/08/24 02:51:25;;;;;;;;;;;24.50;62.10;;;;;;8496225;28;19911;-52
2023/08/24 02:55:25;;;;;;;;;;;24.50;62.10;;;;;;8497287;27;19943;-51
2023/08/24 02:59:26;;;;;;;;;;;24.50;62.00;;;;;;8496684;28;19915;-52
2023/08/24 03:03:28;;;;;;;;;;;24.60;62.10;;;;;;8497062;28;19919;-50
2023/08/24 03:07:29;;;;;;;;;;;24.60;62.10;;;;;;8495285;28;19951;-50
2023/08/24 03:11:29;;;;;;;;;;;24.60;62.00;;;;;;8496681;28;19912;-51
2023/08/24 03:15:31;;;;;;;;;;;24.60;61.80;;;;;;8495681;28;19916;-52
2023/08/24 03:19:31;;;;;;;;;;;24.60;61.80;;;;;;8499450;27;19920;-53
2023/08/24 03:23:32;;;;;;;;;;;24.60;61.90;;;;;;8501134;27;19947;-52
2023/08/24 03:27:33;;;;;;;;;;;24.50;61.80;;;;;;8502072;27;20254;-52
2023/08/24 03:31:33;;;;;;;;;;;24.50;61.90;;;;;;8502466;27;19916;-52
2023/08/24 03:35:34;;;;;;;;;;;24.60;62.10;;;;;;8502812;27;19908;-52
2023/08/24 03:39:36;;;;;;;;;;;24.50;62.00;;;;;;8502632;27;20284;-52
2023/08/24 03:43:37;;;;;;;;;;;24.50;62.00;;;;;;8500928;27;20029;-50
2023/08/24 03:47:37;;;;;;;;;;;24.50;62.00;;;;;;8502354;27;19926;-53
2023/08/24 03:51:38;;;;;;;;;;;24.50;62.00;;;;;;8501252;27;19977;-52
2023/08/24 03:55:38;;;;;;;;;;;24.50;62.00;;;;;;8502357;27;19918;-52
2023/08/24 03:59:39;;;;;;;;;;;24.50;62.00;;;;;;8500611;27;20419;-52
2023/08/24 04:03:39;;;;;;;;;;;24.50;62.00;;;;;;8501819;27;20309;-52
2023/08/24 04:07:41;;;;;;;;;;;24.50;62.00;;;;;;8500425;27;19999;-52
2023/08/24 04:11:42;;;;;;;;;;;24.50;62.80;;;;;;8501426;27;20002;-50
2023/08/24 04:15:42;;;;;;;;;;;24.50;62.00;;;;;;8500711;27;20391;-51
2023/08/24 04:19:43;;;;;;;;;;;24.50;62.00;;;;;;8500700;27;19923;-52
2023/08/24 04:23:45;;;;;;;;;;;24.50;62.00;;;;;;8501121;27;19993;-51
2023/08/24 04:27:46;;;;;;;;;;;24.50;61.90;;;;;;8504343;27;19911;-52
2023/08/24 04:31:46;;;;;;;;;;;24.50;61.80;;;;;;8500157;27;19922;-51
2023/08/24 04:35:48;;;;;;;;;;;24.50;61.80;;;;;;8499503;27;19916;-51
2023/08/24 04:39:48;;;;;;;;;;;24.60;62.00;;;;;;8500637;27;19911;-50
2023/08/24 04:43:49;;;;;;;;;;;24.50;61.90;;;;;;8481031;27;19969;-51
2023/08/24 04:47:49;;;;;;;;;;;24.50;62.00;;;;;;8500502;27;19912;-52
2023/08/24 04:51:50;;;;;;;;;;;24.50;62.00;;;;;;8500273;27;19907;-51
2023/08/24 04:55:50;;;;;;;;;;;24.50;62.00;;;;;;8500037;27;20433;-53
2023/08/24 04:59:51;;;;;;;;;;;24.50;62.00;;;;;;8499286;27;20428;-50
2023/08/24 05:03:52;;;;;;;;;;;24.50;62.00;;;;;;8499342;27;19922;-52
2023/08/24 05:07:54;;;;;;;;;;;24.50;62.00;;;;;;8499611;27;19995;-52
2023/08/24 05:11:55;;;;;;;;;;;24.50;62.00;;;;;;8498387;27;19924;-52
2023/08/24 05:15:55;;;;;;;;;;;24.50;62.00;;;;;;8499607;27;19981;-50
2023/08/24 05:19:56;;;;;;;;;;;24.50;61.90;;;;;;8497893;27;20284;-51
2023/08/24 05:23:56;;;;;;;;;;;24.50;62.00;;;;;;8499452;27;19966;-51
2023/08/24 05:27:57;;;;;;;;;;;24.50;62.00;;;;;;8498301;27;19922;-51
2023/08/24 05:31:57;;;;;;;;;;;24.50;61.90;;;;;;8498999;27;20015;-51
2023/08/24 05:35:58;;;;;;;;;;;24.50;61.90;;;;;;8498390;27;19919;-52
2023/08/24 05:39:59;;;;;;;;;;;24.50;61.90;;;;;;8497938;27;20412;-51
2023/08/24 05:44:00;;;;;;;;;;;24.50;61.80;;;;;;8497992;27;19948;-52
2023/08/24 05:48:01;;;;;;;;;;;24.50;61.80;;;;;;8497672;27;19936;-52
2023/08/24 05:52:01;;;;;;;;;;;24.50;61.80;;;;;;8498264;27;20392;-52
2023/08/24 05:56:02;;;;;;;;;;;24.50;61.80;;;;;;8497177;27;19912;-53
2023/08/24 06:00:03;;;;;;;;;;;24.50;61.80;;;;;;8498142;27;19949;-52
2023/08/24 06:04:10;;;;;;;;;;;24.50;61.90;;;;;;8496982;27;19916;-52
2023/08/24 06:08:10;;;;;;;;;;;24.50;62.70;;;;;;8498076;27;19915;-52
2023/08/24 06:12:11;;;;;;;;;;;24.50;61.90;;;;;;8496637;27;19912;-51
2023/08/24 06:16:11;;;;;;;;;;;24.50;61.90;;;;;;8479348;27;19919;-52
2023/08/24 06:20:12;;;;;;;;;;;24.50;61.90;;;;;;8497323;27;20006;-52
2023/08/24 06:24:13;;;;;;;;;;;24.50;61.90;;;;;;8496739;27;19920;-52
2023/08/24 06:28:13;;;;;;;;;;;24.50;61.90;;;;;;8497734;27;19917;-53
2023/08/24 06:32:14;;;;;;;;;;;24.50;61.90;;;;;;8496095;27;20356;-52
2023/08/24 06:36:14;;;;;;;;;;;24.50;61.90;;;;;;8497364;27;19911;-50
2023/08/24 06:40:17;;;;;;;;;;;24.50;62.70;;;;;;8496062;27;20006;-52
2023/08/24 06:44:17;;;;;;;;;;;24.50;61.90;;;;;;8497058;28;19926;-52
2023/08/24 06:48:18;;;;;;;;;;;24.50;61.90;;;;;;8495881;28;19917;-52
2023/08/24 06:52:19;;;;;;;;;;;24.50;61.90;;;;;;8497095;27;20292;-52
2023/08/24 06:56:19;;;;;;;;;;;24.50;61.90;;;;;;8503723;27;19918;-52
2023/08/24 07:00:20;;;;;;;;;;;24.50;61.80;;;;;;8503120;27;19912;-50
2023/08/24 07:04:21;;;;;;;;;;;24.50;61.80;;;;;;8503525;27;19958;-52
2023/08/24 07:08:21;;;;;;;;;;;24.50;61.70;;;;;;8503035;27;19919;-50
2023/08/24 07:12:22;;;;;;;;;;;24.50;61.70;;;;;;8503532;27;19915;-52
2023/08/24 07:16:22;;;;;;;;;;;24.50;61.80;;;;;;8502399;27;19919;-52
2023/08/24 07:20:23;;;;;;;;;;;24.50;61.80;;;;;;8504171;27;20249;-52
2023/08/24 07:24:28;;;;;;;;;;;24.50;61.80;;;;;;8502053;27;19971;-52
2023/08/24 07:28:29;;;;;;;;;;;24.50;61.80;;;;;;8503163;27;19918;-52
2023/08/24 07:32:30;;;;;;;;;;;24.50;61.80;;;;;;8501643;27;20002;-52
2023/08/24 07:36:30;;;;;;;;;;;24.50;61.80;;;;;;8503812;27;19937;-52
2023/08/24 07:40:31;;;;;;;;;;;24.50;61.80;;;;;;8501955;27;20010;-51
2023/08/24 07:44:31;;;;;;;;;;;24.50;61.80;;;;;;8501529;27;19941;-53
2023/08/24 07:48:32;;;;;;;;;;;24.50;61.80;;;;;;8501681;27;19971;-52
2023/08/24 07:52:33;;;;;;;;;;;24.50;61.80;;;;;;8500225;27;19912;-52
2023/08/24 07:56:33;;;;;;;;;;;24.50;61.80;;;;;;8501260;27;19907;-50
2023/08/24 08:00:34;;;;;;;;;;;24.40;61.80;;;;;;8500657;27;20356;-51
2023/08/24 08:04:35;;;;;;;;;;;24.50;61.80;;;;;;8501028;27;20030;-51
2023/08/24 08:08:35;;;;;;;;;;;24.50;61.80;;;;;;8500400;27;20276;-52
2023/08/24 08:12:36;;;;;;;;;;;24.50;61.80;;;;;;8501714;27;20599;-50
2023/08/24 08:16:36;;;;;;;;;;;24.50;61.80;;;;;;8500302;27;19926;-52
2023/08/24 08:20:39;;;;;;;;;;;24.50;61.70;;;;;;8501336;27;19916;-52
2023/08/24 08:24:39;;;;;;;;;;;24.50;61.80;;;;;;8501122;27;19922;-52
2023/08/24 08:28:40;;;;;;;;;;;24.50;61.80;;;;;;8500565;27;19947;-52
2023/08/24 08:32:40;;;;;;;;;;;24.50;61.80;;;;;;8501008;27;19918;-52
2023/08/24 08:36:41;;;;;;;;;;;24.50;61.70;;;;;;8500086;27;20475;-53
2023/08/24 08:40:42;;;;;;;;;;;24.50;61.80;;;;;;8501740;27;19950;-52
2023/08/24 08:44:45;;;;;;;;;;;24.50;61.80;;;;;;8499715;27;19915;-50
2023/08/24 08:48:46;;;;;;;;;;;24.50;61.70;;;;;;8500593;27;19956;-50
2023/08/24 08:52:47;;;;;;;;;;;24.50;61.70;;;;;;8499000;27;19911;-51
2023/08/24 08:56:48;;;;;;;;;;;24.50;61.80;;;;;;8501098;27;19916;-52
2023/08/24 09:00:49;;;;;;;;;;;24.50;61.80;;;;;;8481216;27;19908;-51
2023/08/24 09:04:50;;;;;;;;;;;24.50;61.80;;;;;;8499426;27;19919;-50
2023/08/24 09:08:52;;;;;;;;;;;24.50;61.70;;;;;;8499194;27;19919;-50
2023/08/24 09:12:52;;;;;;;;;;;24.50;61.70;;;;;;8498819;27;19915;-52
2023/08/24 09:16:53;;;;;;;;;;;24.50;61.70;;;;;;8499083;27;19920;-51
2023/08/24 09:20:53;;;;;;;;;;;24.50;61.70;;;;;;8498411;27;19934;-52
2023/08/24 09:24:54;;;;;;;;;;;24.50;61.70;;;;;;8499842;27;19927;-52
2023/08/24 09:28:55;;;;;;;;;;;24.50;61.70;;;;;;8497906;27;19916;-53
2023/08/24 09:32:55;;;;;;;;;;;24.50;61.80;;;;;;8498753;27;20015;-52
2023/08/24 09:36:56;;;;;;;;;;;24.50;61.70;;;;;;8497575;27;20360;-49
2023/08/24 09:40:56;;;;;;;;;;;24.50;61.80;;;;;;8498916;27;19907;-52
2023/08/24 09:45:04;;;;;;;;;;;24.40;61.70;;;;;;8497749;27;19966;-52
2023/08/24 09:49:05;;;;;;;;;;;24.40;61.70;;;;;;8497851;27;19908;-51
2023/08/24 09:53:05;;;;;;;;;;;24.40;61.70;;;;;;8498449;27;19957;-51
2023/08/24 09:57:09;;;;;;;;;;;24.40;61.60;;;;;;8497208;27;19911;-52
2023/08/24 10:01:09;;;;;;;;;;;24.50;61.80;;;;;;8498347;27;19961;-50
2023/08/24 10:05:11;;;;;;;;;;;24.50;61.80;;;;;;8496681;27;19916;-52
2023/08/24 10:09:16;;;;;;;;;;;24.50;61.80;;;;;;8497894;27;20018;-52
2023/08/24 10:13:19;;;;;;;;;;;24.50;61.70;;;;;;8496622;27;20561;-51
2023/08/24 10:17:21;;;;;;;;;;;24.50;61.80;;;;;;8497352;27;19915;-52
2023/08/24 10:21:24;;;;;;;;;;;24.50;61.70;;;;;;8497037;27;20371;-51
2023/08/24 10:25:25;;;;;;;;;;;24.50;61.80;;;;;;8497178;27;20301;-52
2023/08/24 10:29:27;;;;;;;;;;;24.50;61.80;;;;;;8496857;27;20285;-51
2023/08/24 10:33:29;;;;;;;;;;;24.50;61.80;;;;;;8496143;27;20429;-52
2023/08/24 10:37:30;;;;;;;;;;;24.50;61.80;;;;;;8479162;27;19911;-52
2023/08/24 10:41:46;;;;;;;;;;;24.50;61.70;;;;;;8495671;27;19923;-50
2023/08/24 10:46:00;;;;;;;;;;;24.50;61.70;;;;;;8497421;28;19912;-53
2023/08/24 10:50:01;;;;;;;;;;;24.50;61.60;;;;;;8496232;28;19911;-50
2023/08/24 10:54:04;;;;;;;;;;;24.50;61.50;;;;;;8496915;28;19917;-52
2023/08/24 10:58:04;;;;;;;;;;;24.50;61.50;;;;;;8497463;27;20268;-51
2023/08/24 11:02:06;;;;;;;;;;;24.50;61.50;;;;;;8495614;28;20015;-52
2023/08/24 11:06:23;;;;;;;;;;;24.50;61.40;;;;;;8497083;28;19923;-52
2023/08/24 11:10:24;;;;;;;;;;;24.50;61.50;;;;;;8495632;28;19915;-52
2023/08/24 11:14:26;;;;;;;;;;;24.50;61.50;;;;;;8496516;28;19914;-52
2023/08/24 11:18:28;;;;;;;;;;;24.50;61.50;;;;;;8496154;28;20349;-51
2023/08/24 11:22:29;;;;;;;;;;;24.50;61.50;;;;;;8495932;28;19915;-52
2023/08/24 11:26:29;;;;;;;;;;;24.60;61.40;;;;;;8496808;27;19912;-52
2023/08/24 11:30:33;;;;;;;;;;;24.50;61.40;;;;;;8495122;28;19914;-50
2023/08/24 11:34:34;;;;;;;;;;;24.50;61.40;;;;;;8496747;28;19915;-51
2023/08/24 11:38:41;;;;;;;;;;;24.60;61.50;;;;;;8495288;27;20382;-50
2023/08/24 11:42:42;;;;;;;;;;;24.50;61.50;;;;;;8502533;27;20018;-52
2023/08/24 11:46:42;;;;;;;;;;;24.50;61.40;;;;;;8501046;27;19912;-52
2023/08/24 11:50:43;;;;;;;;;;;24.60;61.40;;;;;;8502565;27;19916;-52
2023/08/24 11:54:44;;;;;;;;;;;24.50;61.30;;;;;;8501847;27;19915;-52
2023/08/24 11:58:47;;;;;;;;;;;24.60;61.40;;;;;;8501616;27;20416;-51
2023/08/24 12:02:48;;;;;;;;;;;24.60;61.40;;;;;;8502070;27;19919;-53
2023/08/24 12:06:49;;;;;;;;;;;24.60;61.20;;;;;;8500668;27;19958;-52
2023/08/24 12:10:49;;;;;;;;;;;24.60;61.40;;;;;;8501858;27;20397;-53
2023/08/24 12:14:50;;;;;;;;;;;24.50;61.20;;;;;;8500418;27;20365;-51
2023/08/24 12:18:51;;;;;;;;;;;24.50;61.00;;;;;;8501430;27;19926;-54
2023/08/24 12:22:52;;;;;;;;;;;24.50;61.10;;;;;;8500070;27;20010;-52
2023/08/24 12:27:00;;;;;;;;;;;24.60;60.90;;;;;;8501548;27;19908;-53
2023/08/24 12:31:03;;;;;;;;;;;24.60;61.10;;;;;;8500275;27;20447;-51
2023/08/24 12:35:05;;;;;;;;;;;24.60;61.00;;;;;;8500523;27;19912;-51
2023/08/24 12:39:10;;;;;;;;;;;24.60;61.10;;;;;;8501075;27;19918;-53
2023/08/24 12:43:10;;;;;;;;;;;24.50;61.10;;;;;;8499218;27;20007;-50
2023/08/24 12:47:11;;;;;;;;;;;24.50;60.90;;;;;;8500759;27;19911;-50
2023/08/24 12:51:12;;;;;;;;;;;24.60;61.10;;;;;;8498668;27;19911;-51
2023/08/24 12:55:12;;;;;;;;;;;24.60;61.00;;;;;;8500489;27;19915;-52
2023/08/24 12:59:13;;;;;;;;;;;24.60;61.20;;;;;;8498887;27;19911;-51
2023/08/24 13:03:13;;;;;;;;;;;24.60;61.20;;;;;;8500083;27;19916;-52
2023/08/24 13:07:14;;;;;;;;;;;24.60;61.20;;;;;;8499395;27;20360;-50
2023/08/24 13:11:15;;;;;;;;;;;24.60;61.00;;;;;;8499052;27;19912;-51
2023/08/24 13:15:15;;;;;;;;;;;24.50;61.10;;;;;;8499728;27;19900;-51
2023/08/24 13:19:16;;;;;;;;;;;24.60;61.20;;;;;;8498937;27;19969;-52
2023/08/24 13:23:16;;;;;;;;;;;24.60;61.10;;;;;;8498547;27;20269;-53
2023/08/24 13:27:17;;;;;;;;;;;24.60;61.00;;;;;;8497979;27;19911;-52
2023/08/24 13:31:17;;;;;;;;;;;24.60;61.90;;;;;;8498953;27;20275;-52
2023/08/24 13:35:18;;;;;;;;;;;24.60;61.00;;;;;;8497752;27;19908;-50
2023/08/24 13:39:19;;;;;;;;;;;24.60;61.00;;;;;;8499870;27;19912;-51
2023/08/24 13:43:19;;;;;;;;;;;24.60;60.90;;;;;;8497880;27;19922;-53
2023/08/24 13:47:21;;;;;;;;;;;24.60;61.10;;;;;;8498825;27;19914;-52
2023/08/24 13:51:21;;;;;;;;;;;24.60;61.00;;;;;;8497957;27;19912;-51
2023/08/24 13:55:22;;;;;;;;;;;24.60;61.00;;;;;;8498015;27;20002;-51
2023/08/24 13:59:23;;;;;;;;;;;24.60;61.10;;;;;;8497962;27;19912;-50
2023/08/24 14:03:23;;;;;;;;;;;24.60;61.10;;;;;;8496553;27;19958;-50
2023/08/24 14:07:24;;;;;;;;;;;24.60;61.20;;;;;;8497406;27;19994;-50
2023/08/24 14:11:24;;;;;;;;;;;24.60;61.20;;;;;;8496217;27;20010;-53
2023/08/24 14:15:25;;;;;;;;;;;24.60;61.10;;;;;;8496915;27;19977;-52
2023/08/24 14:19:26;;;;;;;;;;;24.50;61.10;;;;;;8496383;27;20377;-51
2023/08/24 14:23:26;;;;;;;;;;;24.60;61.10;;;;;;8479853;27;20285;-52
2023/08/24 14:27:27;;;;;;;;;;;24.60;61.20;;;;;;8478479;27;19915;-52
2023/08/24 14:31:29;;;;;;;;;;;24.60;61.10;;;;;;8497365;27;20002;-53
2023/08/24 14:35:29;;;;;;;;;;;24.60;61.10;;;;;;8496743;27;19908;-50
2023/08/24 14:39:30;;;;;;;;;;;24.60;61.10;;;;;;8496499;27;20405;-52
2023/08/24 14:43:30;;;;;;;;;;;24.60;61.10;;;;;;8496914;27;20322;-52
2023/08/24 14:47:31;;;;;;;;;;;24.60;61.10;;;;;;8495758;27;20115;-53
2023/08/24 14:51:31;;;;;;;;;;;24.60;61.10;;;;;;8497161;28;19911;-52
2023/08/24 14:55:32;;;;;;;;;;;24.60;61.10;;;;;;8496098;27;19907;-51
2023/08/24 14:59:32;;;;;;;;;;;24.60;61.20;;;;;;8496699;28;19912;-50
2023/08/24 15:03:33;;;;;;;;;;;24.60;61.10;;;;;;8495541;28;19911;-50
2023/08/24 15:07:34;;;;;;;;;;;24.60;61.10;;;;;;8496879;28;19918;-51
2023/08/24 15:11:34;;;;;;;;;;;24.60;61.10;;;;;;8495576;28;20280;-51
2023/08/24 15:15:36;;;;;;;;;;;24.60;61.00;;;;;;8500345;27;19923;-53
2023/08/24 15:19:36;;;;;;;;;;;24.60;61.10;;;;;;8502359;27;19915;-50
2023/08/24 15:23:37;;;;;;;;;;;24.60;61.10;;;;;;8502871;27;19920;-51
2023/08/24 15:27:37;;;;;;;;;;;24.60;61.10;;;;;;8503495;27;19923;-52
2023/08/24 15:31:38;;;;;;;;;;;24.60;61.10;;;;;;8501628;27;20443;-52
2023/08/24 15:35:42;;;;;;;;;;;24.60;61.10;;;;;;8503200;27;19915;-52
2023/08/24 15:39:42;;;;;;;;;;;24.60;61.10;;;;;;8501748;27;20018;-52
2023/08/24 15:43:43;;;;;;;;;;;24.60;61.10;;;;;;8502640;27;19928;-51
2023/08/24 15:47:43;;;;;;;;;;;24.60;61.10;;;;;;8501390;27;20342;-50
2023/08/24 15:51:44;;;;;;;;;;;24.60;61.10;;;;;;8502532;27;20048;-52
2023/08/24 15:55:44;;;;;;;;;;;24.60;61.00;;;;;;8501629;27;19919;-50
2023/08/24 15:59:45;;;;;;;;;;;24.60;60.60;;;;;;8501627;27;19950;-52
2023/08/24 16:03:45;;;;;;;;;;;24.60;60.90;;;;;;8501629;27;19916;-51
2023/08/24 16:07:46;;;;;;;;;;;24.60;60.90;;;;;;8501126;27;19916;-52
2023/08/24 16:11:46;;;;;;;;;;;24.60;60.70;;;;;;8501578;27;19933;-51
2023/08/24 16:15:47;;;;;;;;;;;24.60;60.80;;;;;;8500354;27;19907;-52
2023/08/24 16:19:48;;;;;;;;;;;24.60;60.70;;;;;;8501857;27;19916;-52
2023/08/24 16:23:48;;;;;;;;;;;24.60;60.70;;;;;;8500254;27;20412;-52
2023/08/24 16:27:49;;;;;;;;;;;24.60;60.70;;;;;;8501131;27;19918;-51
2023/08/24 16:31:50;;;;;;;;;;;24.60;60.70;;;;;;8499700;27;19943;-51
2023/08/24 16:35:50;;;;;;;;;;;24.70;60.30;;;;;;8501688;27;20292;-52
2023/08/24 16:39:51;;;;;;;;;;;24.60;60.40;;;;;;8500110;27;20200;-50
2023/08/24 16:43:51;;;;;;;;;;;24.60;60.70;;;;;;8500081;27;19915;-52
2023/08/24 16:47:52;;;;;;;;;;;24.60;61.00;;;;;;8500253;27;19919;-52
2023/08/24 16:51:52;;;;;;;;;;;24.60;61.00;;;;;;8500103;27;20360;-52
2023/08/24 16:55:56;;;;;;;;;;;24.60;61.10;;;;;;8500731;27;19911;-52
2023/08/24 16:59:56;;;;;;;;;;;24.60;61.20;;;;;;8498910;27;19908;-51
2023/08/24 17:03:57;;;;;;;;;;;24.60;61.30;;;;;;8500021;27;20010;-52
2023/08/24 17:08:03;;;;;;;;;;;24.60;61.20;;;;;;8498698;27;19923;-50
2023/08/24 17:12:03;;;;;;;;;;;24.60;61.30;;;;;;8499649;27;19994;-51
2023/08/24 17:16:04;;;;;;;;;;;24.60;61.40;;;;;;8498138;27;20402;-50
2023/08/24 17:20:05;;;;;;;;;;;24.60;61.30;;;;;;8499733;27;19914;-52
2023/08/24 17:24:05;;;;;;;;;;;24.60;61.30;;;;;;8498758;27;19919;-51
2023/08/24 17:28:06;;;;;;;;;;;24.60;61.40;;;;;;8480513;27;19937;-52
2023/08/24 17:32:06;;;;;;;;;;;24.60;61.40;;;;;;8521557;27;19963;-52
2023/08/24 17:36:07;;;;;;;;;;;24.60;61.60;;;;;;8532949;27;20164;-51
2023/08/24 17:40:10;;;;;;;;;;;24.60;61.70;;;;;;8532896;27;19946;-52
2023/08/24 17:44:10;;;;;;;;;;;24.60;61.70;;;;;;8532093;27;20372;-52
2023/08/24 17:48:11;;;;;;;;;;;24.60;61.80;;;;;;8532615;27;20353;-51
2023/08/24 17:52:13;;;;;;;;;;;24.60;61.80;;;;;;8531699;27;19998;-52
2023/08/24 17:56:13;;;;;;;;;;;24.60;61.80;;;;;;8517238;27;19937;-51
2023/08/24 18:00:14;;;;;;;;;;;24.60;61.80;;;;;;8497187;27;19915;-52
2023/08/24 18:04:14;;;;;;;;;;;24.60;61.80;;;;;;8497524;27;19911;-51
2023/08/24 18:08:15;;;;;;;;;;;24.60;61.90;;;;;;8497288;27;19952;-51
2023/08/24 18:12:15;;;;;;;;;;;24.60;62.00;;;;;;8513180;27;20301;-52
2023/08/24 18:16:16;;;;;;;;;;;24.60;62.00;;;;;;8497904;27;19911;-50
2023/08/24 18:20:18;;;;;;;;;;;24.60;62.00;;;;;;8496361;27;20282;-52
2023/08/24 18:24:20;;;;;;;;;;;24.60;62.00;;;;;;8497630;27;19916;-52
2023/08/24 18:28:20;;;;;;;;;;;24.60;62.00;;;;;;8496683;27;20361;-51
2023/08/24 18:32:21;;;;;;;;;;;24.60;62.00;;;;;;8497137;27;20292;-52
2023/08/24 18:36:21;;;;;;;;;;;24.60;62.10;;;;;;8496200;27;19911;-51
2023/08/24 18:40:22;;;;;;;;;;;24.60;62.00;;;;;;8496976;27;19911;-51
2023/08/24 18:44:22;;;;;;;;;;;24.60;62.00;;;;;;8496810;27;19915;-52
2023/08/24 18:48:23;;;;;;;;;;;24.60;62.00;;;;;;8511837;27;19921;-52
2023/08/24 18:52:23;;;;;;;;;;;24.60;62.10;;;;;;8496172;28;19907;-52
2023/08/24 18:56:24;;;;;;;;;;;24.60;62.10;;;;;;8495810;27;19934;-52
2023/08/24 19:00:24;;;;;;;;;;;24.60;62.20;;;;;;8495987;28;19911;-52
2023/08/24 19:04:25;;;;;;;;;;;24.60;62.30;;;;;;8495240;28;20024;-52
2023/08/24 19:08:25;;;;;;;;;;;24.50;62.20;;;;;;8513457;27;19912;-51
2023/08/24 19:12:26;;;;;;;;;;;24.60;62.30;;;;;;8495316;28;19911;-52
2023/08/24 19:16:27;;;;;;;;;;;24.60;62.30;;;;;;8496392;28;19926;-52
2023/08/24 19:20:27;;;;;;;;;;;24.60;62.30;;;;;;8495187;28;20395;-52
2023/08/24 19:24:28;;;;;;;;;;;24.60;62.30;;;;;;8496538;27;19930;-49
2023/08/24 19:28:29;;;;;;;;;;;24.60;62.40;;;;;;8495803;28;19922;-52
2023/08/24 19:32:29;;;;;;;;;;;24.60;62.50;;;;;;8495282;28;19918;-52
2023/08/24 19:36:30;;;;;;;;;;;24.50;62.40;;;;;;8495492;28;19935;-52
2023/08/24 19:40:30;;;;;;;;;;;24.50;62.40;;;;;;8494666;28;19937;-53
2023/08/24 19:44:31;;;;;;;;;;;24.50;62.40;;;;;;8496021;28;20313;-50
2023/08/24 19:48:32;;;;;;;;;;;24.50;62.50;;;;;;8495078;28;19968;-50
2023/08/24 19:52:33;;;;;;;;;;;24.50;62.50;;;;;;8496197;28;19908;-51
2023/08/24 19:56:34;;;;;;;;;;;24.60;62.60;;;;;;8494970;27;19918;-52
2023/08/24 20:00:34;;;;;;;;;;;24.50;62.40;;;;;;8497646;27;19912;-50
2023/08/24 20:04:35;;;;;;;;;;;24.60;62.50;;;;;;8500720;27;20379;-51
2023/08/24 20:08:35;;;;;;;;;;;24.60;62.50;;;;;;8501680;27;20510;-50
2023/08/24 20:12:36;;;;;;;;;;;24.60;62.60;;;;;;8501114;27;20288;-51
2023/08/24 20:16:36;;;;;;;;;;;24.60;62.60;;;;;;8501051;27;19920;-52
2023/08/24 20:20:37;;;;;;;;;;;24.50;62.50;;;;;;8501322;27;19955;-51
2023/08/24 20:24:39;;;;;;;;;;;24.50;62.50;;;;;;8500340;27;20071;-52
2023/08/24 20:28:40;;;;;;;;;;;24.50;62.50;;;;;;8501059;27;19912;-52
2023/08/24 20:32:41;;;;;;;;;;;24.50;62.50;;;;;;8499819;27;20007;-51
2023/08/24 20:36:42;;;;;;;;;;;24.60;62.60;;;;;;8500899;27;19912;-52
2023/08/24 20:40:42;;;;;;;;;;;24.60;62.60;;;;;;8499712;27;20391;-51
2023/08/24 20:44:43;;;;;;;;;;;24.50;62.50;;;;;;8500449;27;20273;-50
2023/08/24 20:48:43;;;;;;;;;;;24.60;62.60;;;;;;8499186;27;19923;-51
2023/08/24 20:52:44;;;;;;;;;;;24.50;62.80;;;;;;8500421;27;20257;-52
2023/08/24 20:56:44;;;;;;;;;;;24.50;62.60;;;;;;8500076;27;20014;-52
2023/08/24 21:00:45;;;;;;;;;;;24.60;62.70;;;;;;8499600;27;19912;-51
2023/08/24 21:04:47;;;;;;;;;;;24.60;62.70;;;;;;8500085;27;19964;-50
2023/08/24 21:08:47;;;;;;;;;;;24.50;62.60;;;;;;8498703;27;19998;-53
2023/08/24 21:12:48;;;;;;;;;;;24.50;62.70;;;;;;8499593;27;19916;-52
2023/08/24 21:16:48;;;;;;;;;;;24.50;62.70;;;;;;8479713;27;19962;-51
2023/08/24 21:20:53;;;;;;;;;;;24.50;62.70;;;;;;8499552;27;19960;-49
2023/08/24 21:24:54;;;;;;;;;;;24.50;62.80;;;;;;8498265;27;19941;-51
2023/08/24 21:28:54;;;;;;;;;;;24.50;62.70;;;;;;8499358;27;19914;-52
2023/08/24 21:32:55;;;;;;;;;;;24.60;62.80;;;;;;8498472;27;19912;-52
2023/08/24 21:36:55;;;;;;;;;;;24.50;62.80;;;;;;8479766;27;19912;-52
2023/08/24 21:40:56;;;;;;;;;;;24.50;62.70;;;;;;8498808;27;20011;-52
2023/08/24 21:45:01;;;;;;;;;;;24.50;62.70;;;;;;8497254;27;20138;-52
2023/08/24 21:49:02;;;;;;;;;;;24.60;62.80;;;;;;8498429;27;19993;-51
2023/08/24 21:53:03;;;;;;;;;;;24.50;62.70;;;;;;8497331;27;20530;-52
2023/08/24 21:57:04;;;;;;;;;;;24.50;62.80;;;;;;8498957;27;20297;-53
2023/08/24 22:01:06;;;;;;;;;;;24.60;63.00;;;;;;8496887;27;19912;-52
2023/08/24 22:05:07;;;;;;;;;;;24.50;62.80;;;;;;8498503;27;19918;-49
2023/08/24 22:09:08;;;;;;;;;;;24.50;62.90;;;;;;8478368;27;19908;-52
2023/08/24 22:13:08;;;;;;;;;;;24.50;63.00;;;;;;8479565;27;19936;-52
2023/08/24 22:17:09;;;;;;;;;;;24.50;63.00;;;;;;8497335;27;19970;-50
2023/08/24 22:21:09;;;;;;;;;;;24.50;62.90;;;;;;8498045;27;19916;-52
2023/08/24 22:25:10;;;;;;;;;;;24.50;63.00;;;;;;8496911;27;19931;-50
2023/08/24 22:29:12;;;;;;;;;;;24.50;63.00;;;;;;8496589;27;19917;-49
2023/08/24 22:33:12;;;;;;;;;;;24.50;63.00;;;;;;8497945;27;19912;-51
2023/08/24 22:37:13;;;;;;;;;;;24.50;63.00;;;;;;8496194;27;20576;-50
2023/08/24 22:41:13;;;;;;;;;;;24.50;63.10;;;;;;8497302;27;19907;-52
2023/08/24 22:45:14;;;;;;;;;;;24.50;63.00;;;;;;8477440;27;19916;-52
2023/08/24 22:49:14;;;;;;;;;;;24.60;63.10;;;;;;8497576;27;19920;-52
2023/08/24 22:53:15;;;;;;;;;;;24.50;63.10;;;;;;8496081;28;20057;-52
2023/08/24 22:57:16;;;;;;;;;;;24.50;63.10;;;;;;8496991;27;19911;-50
2023/08/24 23:01:17;;;;;;;;;;;24.50;63.10;;;;;;8496579;28;19907;-50
2023/08/24 23:05:18;;;;;;;;;;;24.50;63.10;;;;;;8495925;28;20433;-50
2023/08/24 23:09:19;;;;;;;;;;;24.50;63.10;;;;;;8496843;28;20337;-52
2023/08/24 23:13:19;;;;;;;;;;;24.50;63.30;;;;;;8495458;28;19994;-49
2023/08/24 23:17:21;;;;;;;;;;;24.50;63.30;;;;;;8496759;28;19934;-50
2023/08/24 23:21:21;;;;;;;;;;;24.50;63.30;;;;;;8495693;28;19907;-52